Accueil
METAR-TAF:

METAR-TAF

Aéroports :

Southampton, Angleterre

Aéroport de Southampton

latitude: 50-54N, longitude: 001-24W, altitude: 9 m

Observation

Le bulletin a été fait il y a 32 minutes, à 10:20 UTC
Vent 2 kt de direction variable
Température 14°C
Humidité 77%
Pression 996 hPa
Visibilité 10 km ou plus
Nuages épars à une hauteur de 1500 ft
Nuages fragmentés à une hauteur de 4300 ft

METAR: EGHI 291020Z VRB02KT 9999 SCT015 BKN043 14/10 Q0996

Heure: 11:52 (10:52 UTC)

Prévision

Le bulletin a été fait il y a 2 heures et 51 minutes, à 08:01 UTC
Prévision valable du 29 à 09 UTC au 29 à 18 UTC
Vent 4 kt de nord-ouest
Visibilité 10 km ou plus
Quelques nuages à une hauteur de 1200 ft
Nuages épars à une hauteur de 2000 ft
Probabilité 30% :
Temporairement
du 29 à 09 UTC au 29 à 11 UTC
Nuages fragmentés à une hauteur de 1200 ft

TAF: EGHI 290801Z 2909/2918 31004KT 9999 FEW012 SCT020 PROB30 TEMPO 2909/2911 BKN012

Observations et prévisions météorologiques de plus de 4000 aéroports (messages METAR et TAF).

Les stations disponibles sont représentées par des disques jaunes et rouges sur la carte.

Passer la souris dessus pour voir le nom de la station.

Cliquer dessus pour voir les observations et prévisions météorologiques.

Pour changer de carte: cliquez sur les boutons verts avec une croix noire pour zoomer, sur le bouton vert avec un tiret pour effectuer un zoom arrière, ou sur les flèches vertes pour les cartes adjacentes.


METAR-TAF: